Time;durP1;ratioP1;P1;durP2;ratioP2;P2;SDS_P1;SDS_P2;PMS_P1;PMS_P2;Temp;Humidity;BMP_temperature;BMP_pressure;BME280_temperature;BME280_humidity;BME280_pressure;Samples;Min_cycle;Max_cycle;Signal;HPM_P1;HPM_P2
2023/10/16 00:00:29;;;;;;;3.43;1.10;;;7.30;1.00;;;;;;10317459;28;20277;-78
2023/10/16 00:05:51;;;;;;;1.43;1.00;;;7.20;1.00;;;;;;10312549;28;20225;-78
2023/10/16 00:11:17;;;;;;;4.97;1.20;;;7.20;1.00;;;;;;10329000;28;20199;-79
2023/10/16 00:16:39;;;;;;;4.00;1.30;;;7.20;1.00;;;;;;10353963;28;20217;-79
2023/10/16 00:22:16;;;;;;;4.60;1.10;;;7.10;1.00;;;;;;10352595;28;20226;-79
2023/10/16 00:27:40;;;;;;;6.40;1.80;;;7.10;1.00;;;;;;10339013;28;20278;-79
2023/10/16 00:33:04;;;;;;;5.97;1.57;;;7.20;40.90;;;;;;10353598;28;20214;-80
2023/10/16 00:38:26;;;;;;;2.67;1.00;;;7.00;8.60;;;;;;10357643;28;20419;-79
2023/10/16 00:43:48;;;;;;;2.47;1.20;;;7.00;1.00;;;;;;10358115;28;20232;-78
2023/10/16 00:49:13;;;;;;;5.53;1.40;;;7.00;99.90;;;;;;10358950;28;20274;-78
2023/10/16 00:54:40;;;;;;;4.47;1.43;;;6.90;99.90;;;;;;10344456;28;20213;-79
2023/10/16 01:00:12;;;;;;;4.17;1.30;;;7.00;99.90;;;;;;10359167;28;20272;-77
2023/10/16 01:05:33;;;;;;;3.60;1.20;;;7.10;99.90;;;;;;10358549;28;20232;-79
2023/10/16 01:10:57;;;;;;;5.93;1.63;;;7.20;99.90;;;;;;10370838;28;20203;-78
2023/10/16 01:22:29;;;;;;;3.10;1.07;;;7.30;94.60;;;;;;10357837;28;20253;-77
2023/10/16 01:27:50;;;;;;;5.07;1.50;;;7.30;69.00;;;;;;10352199;28;20281;-77
2023/10/16 01:33:16;;;;;;;2.07;1.10;;;7.40;81.90;;;;;;10318398;28;20253;-78
2023/10/16 01:38:38;;;;;;;4.23;1.37;;;7.40;10.30;;;;;;10303181;28;20230;-79
2023/10/16 01:44:05;;;;;;;6.97;1.40;;;7.40;1.00;;;;;;10337500;28;20591;-79
2023/10/16 01:49:28;;;;;;;3.63;1.40;;;7.40;1.00;;;;;;10342398;28;20195;-78
2023/10/16 01:54:51;;;;;;;3.83;1.20;;;7.50;1.00;;;;;;10356105;28;20209;-79
2023/10/16 02:00:17;;;;;;;4.97;1.17;;;7.40;1.00;;;;;;10310859;28;20421;-78
2023/10/16 02:05:41;;;;;;;3.47;1.20;;;7.40;1.00;;;;;;10316029;28;20223;-78
2023/10/16 02:11:03;;;;;;;3.13;1.10;;;7.20;1.00;;;;;;10303284;28;20213;-79
2023/10/16 02:16:26;;;;;;;4.03;1.00;;;7.10;1.00;;;;;;10316271;28;20190;-77
2023/10/16 02:21:49;;;;;;;2.40;0.90;;;7.10;1.00;;;;;;10301740;28;20222;-77
2023/10/16 02:27:14;;;;;;;9.80;4.73;;;7.00;1.00;;;;;;10328010;28;20205;-77
2023/10/16 02:32:36;;;;;;;12.83;6.90;;;6.90;1.00;;;;;;10355388;28;20224;-78
2023/10/16 02:37:57;;;;;;;7.20;4.77;;;6.90;1.00;;;;;;10356187;28;20232;-79
2023/10/16 02:43:23;;;;;;;4.90;1.50;;;6.80;1.00;;;;;;10353744;28;20226;-78
2023/10/16 02:48:45;;;;;;;2.83;1.00;;;6.80;1.00;;;;;;10355129;28;20194;-79
2023/10/16 02:54:08;;;;;;;1.53;0.83;;;6.80;1.00;;;;;;10353243;28;20230;-78
2023/10/16 02:59:31;;;;;;;8.23;3.47;;;6.80;99.90;;;;;;10349615;28;20206;-75
2023/10/16 03:04:54;;;;;;;3.90;2.40;;;6.70;99.90;;;;;;10354026;28;20233;-78
2023/10/16 03:10:20;;;;;;;4.70;1.67;;;6.70;99.90;;;;;;10339372;28;20196;-78
2023/10/16 03:15:45;;;;;;;2.67;1.00;;;6.70;1.00;;;;;;10354205;28;20194;-79
2023/10/16 03:26:34;;;;;;;3.37;1.20;;;6.70;1.00;;;;;;10352602;28;20208;-78
2023/10/16 03:31:55;;;;;;;6.43;2.23;;;6.60;1.00;;;;;;10340177;28;20205;-79
2023/10/16 03:37:24;;;;;;;3.37;1.30;;;6.60;1.00;;;;;;10339553;28;20240;-79
2023/10/16 03:42:46;;;;;;;3.30;1.60;;;6.60;1.00;;;;;;10338394;28;20237;-77
2023/10/16 03:48:10;;;;;;;2.70;1.03;;;6.60;1.00;;;;;;10326499;28;20504;-79
2023/10/16 03:53:32;;;;;;;5.57;1.50;;;6.60;1.00;;;;;;10332372;28;20248;-78
2023/10/16 03:58:53;;;;;;;4.70;1.10;;;6.50;1.00;;;;;;10336756;28;20201;-77
2023/10/16 04:04:15;;;;;;;3.33;1.00;;;6.50;1.00;;;;;;10353936;28;20560;-77
2023/10/16 04:09:40;;;;;;;5.53;1.23;;;6.60;1.00;;;;;;10334063;28;20219;-79
2023/10/16 04:15:04;;;;;;;1.30;0.80;;;6.60;1.00;;;;;;10306251;28;20205;-77
2023/10/16 04:20:43;;;;;;;4.13;1.17;;;6.60;99.90;;;;;;10292866;28;20237;-79
2023/10/16 04:31:44;;;;;;;3.10;1.00;;;6.50;1.00;;;;;;10319538;28;20437;-79
2023/10/16 04:54:27;;;;;;;4.70;0.70;;;6.40;1.00;;;;;;10342287;28;20210;-76
2023/10/16 05:00:00;;;;;;;6.30;2.77;;;6.40;99.90;;;;;;10345300;28;20206;-77
2023/10/16 05:05:56;;;;;;;11.57;3.83;;;6.30;1.00;;;;;;10358737;28;20248;-76
2023/10/16 06:19:19;;;;;;;3.43;1.33;;;6.70;1.00;;;;;;10273017;29;20236;-78
2023/10/16 06:24:47;;;;;;;4.80;1.30;;;6.80;99.90;;;;;;10276021;28;20252;-78
2023/10/16 06:30:09;;;;;;;2.90;1.00;;;6.80;99.90;;;;;;10272470;29;20243;-79
2023/10/16 06:35:30;;;;;;;6.13;1.20;;;6.90;1.00;;;;;;10276496;28;20258;-77
2023/10/16 06:40:55;;;;;;;5.27;1.37;;;7.00;1.00;;;;;;10316118;28;20201;-78
2023/10/16 06:46:25;;;;;;;1.23;0.77;;;7.00;44.70;;;;;;10325887;28;20237;-78
2023/10/16 06:51:46;;;;;;;4.63;1.67;;;7.10;1.00;;;;;;10354409;28;20364;-77
2023/10/16 06:57:13;;;;;;;3.00;1.20;;;7.20;1.00;;;;;;10355331;28;20278;-78
2023/10/16 07:02:36;;;;;;;2.67;1.17;;;7.80;1.00;;;;;;10354009;28;20253;-78
2023/10/16 07:07:59;;;;;;;3.17;0.90;;;7.90;1.00;;;;;;10353365;28;20211;-76
2023/10/16 07:13:28;;;;;;;4.20;1.30;;;8.50;2.30;;;;;;10367359;28;20205;-77
2023/10/16 07:18:54;;;;;;;1.97;1.10;;;9.70;99.90;;;;;;10352702;28;20257;-79
2023/10/16 07:24:15;;;;;;;1.95;1.10;;;10.70;1.00;;;;;;10337928;28;20271;-78
2023/10/16 07:29:38;;;;;;;1.85;1.00;;;11.50;99.90;;;;;;10300659;28;20257;-78
2023/10/16 07:34:59;;;;;;;1.50;0.73;;;11.90;94.80;;;;;;10342791;28;20408;-79
2023/10/16 07:40:21;;;;;;;2.38;1.00;;;12.40;1.00;;;;;;10349924;28;20233;-78
2023/10/16 07:45:44;;;;;;;2.70;0.83;;;11.70;1.00;;;;;;10342173;28;20466;-75
2023/10/16 07:51:08;;;;;;;13.47;6.30;;;11.10;35.70;;;;;;10330238;28;20249;-78
2023/10/16 07:56:30;;;;;;;3.60;1.60;;;10.70;99.90;;;;;;10354102;28;20497;-78
2023/10/16 08:01:55;;;;;;;3.37;1.07;;;10.90;99.90;;;;;;10355634;28;20229;-80
2023/10/16 08:07:40;;;;;;;4.30;1.27;;;11.40;99.90;;;;;;10350018;28;20203;-79
2023/10/16 08:13:11;;;;;;;3.80;1.50;;;11.20;99.90;;;;;;10318718;28;20209;-76
2023/10/16 08:18:32;;;;;;;2.27;0.90;;;11.20;99.90;;;;;;10334723;28;20218;-76
2023/10/16 08:23:56;;;;;;;5.67;1.50;;;10.90;99.90;;;;;;10352405;28;20236;-82
2023/10/16 08:34:40;;;;;;;6.43;2.00;;;10.50;1.00;;;;;;10339294;28;20286;-79
2023/10/16 08:40:02;;;;;;;3.93;1.33;;;10.70;1.00;;;;;;10331825;28;20587;-76
2023/10/16 08:45:24;;;;;;;4.40;1.70;;;11.30;99.90;;;;;;10343456;28;20230;-78
2023/10/16 08:50:52;;;;;;;4.37;1.33;;;10.90;99.90;;;;;;10344913;28;20602;-76
2023/10/16 08:56:17;;;;;;;3.90;1.63;;;10.50;1.00;;;;;;10339588;28;20497;-77
2023/10/16 09:01:39;;;;;;;4.47;1.30;;;10.40;1.00;;;;;;10354177;28;20196;-81
2023/10/16 09:07:00;;;;;;;4.83;1.70;;;10.30;1.00;;;;;;10334268;28;20291;-84
2023/10/16 09:12:26;;;;;;;2.63;1.23;;;9.80;99.90;;;;;;10340773;28;20191;-80
2023/10/16 09:17:47;;;;;;;3.63;1.27;;;9.60;1.00;;;;;;10350394;28;20594;-82
2023/10/16 09:23:14;;;;;;;3.10;1.03;;;9.90;99.90;;;;;;10346235;28;20253;-78
2023/10/16 09:28:35;;;;;;;4.07;1.63;;;10.30;1.00;;;;;;10334298;28;20192;-76
2023/10/16 09:33:57;;;;;;;9.60;4.40;;;10.20;99.90;;;;;;10321106;28;20201;-76
2023/10/16 09:39:18;;;;;;;3.60;1.50;;;10.60;1.00;;;;;;10344727;28;20475;-75
2023/10/16 09:44:40;;;;;;;1.27;0.80;;;10.70;1.00;;;;;;10334330;28;20279;-79
2023/10/16 09:50:16;;;;;;;2.83;1.43;;;10.30;1.00;;;;;;10329908;28;20206;-80
2023/10/16 09:55:39;;;;;;;2.77;1.20;;;10.10;1.00;;;;;;10327362;28;20268;-79
2023/10/16 10:01:10;;;;;;;4.80;1.67;;;10.30;99.90;;;;;;10328923;28;20211;-78
2023/10/16 10:06:39;;;;;;;7.77;2.53;;;10.60;1.00;;;;;;10322511;28;20247;-78
2023/10/16 10:12:33;;;;;;;5.90;1.50;;;10.70;99.90;;;;;;10325707;28;20207;-78
2023/10/16 10:17:58;;;;;;;6.43;1.80;;;10.40;1.00;;;;;;10329990;28;20403;-78
2023/10/16 10:23:20;;;;;;;6.43;3.03;;;10.20;31.90;;;;;;10344375;28;20224;-76
2023/10/16 10:28:41;;;;;;;6.10;3.43;;;10.00;1.00;;;;;;10339754;28;20192;-78
2023/10/16 10:34:27;;;;;;;14.60;6.17;;;9.60;99.90;;;;;;10349051;28;20197;-78
2023/10/16 10:39:49;;;;;;;9.73;4.87;;;9.20;1.00;;;;;;10347778;28;20263;-77
2023/10/16 10:45:31;;;;;;;6.70;2.57;;;9.00;99.90;;;;;;10337954;28;20235;-77
2023/10/16 10:50:56;;;;;;;7.93;3.87;;;8.70;1.00;;;;;;10318012;28;20576;-77
2023/10/16 10:56:17;;;;;;;6.43;3.50;;;8.50;1.00;;;;;;10346271;28;20500;-78
2023/10/16 11:01:51;;;;;;;4.67;2.63;;;9.30;1.00;;;;;;10348512;28;20202;-78
2023/10/16 11:08:17;;;;;;;4.33;2.27;;;12.00;1.00;;;;;;10348057;28;20236;-78
2023/10/16 11:13:04;;;;;;;3.65;1.38;;;13.50;99.90;;;;;;10340736;28;20205;-79
2023/10/16 11:18:26;;;;;;;1.48;0.98;;;13.60;99.90;;;;;;10324914;28;20193;-80
2023/10/16 11:23:48;;;;;;;3.38;0.80;;;14.10;93.40;;;;;;10315185;28;20235;-79
2023/10/16 11:29:15;;;;;;;3.47;0.88;;;14.70;1.00;;;;;;10331255;28;20249;-78
2023/10/16 11:34:49;;;;;;;0.80;0.60;;;;;;;;;;10338151;28;20219;-76
2023/10/16 11:40:24;;;;;;;2.22;0.98;;;15.90;99.90;;;;;;10347887;28;20228;-76
2023/10/16 11:45:53;;;;;;;2.10;1.00;;;;;;;;;;10337899;28;20572;-76
2023/10/16 11:51:18;;;;;;;1.77;0.80;;;17.90;1.00;;;;;;10347697;28;20293;-75
2023/10/16 11:56:41;;;;;;;3.00;1.40;;;17.80;99.90;;;;;;10315483;28;20257;-78
2023/10/16 12:02:11;;;;;;;4.30;1.15;;;17.70;1.00;;;;;;10315773;28;20327;-79
2023/10/16 12:07:33;;;;;;;1.98;1.23;;;16.50;1.00;;;;;;10331387;28;20319;-78
2023/10/16 12:12:55;;;;;;;1.67;0.83;;;14.60;39.30;;;;;;10332365;28;20198;-78
2023/10/16 12:18:17;;;;;;;2.03;1.00;;;12.60;1.00;;;;;;10332851;28;20221;-81
2023/10/16 12:23:38;;;;;;;0.50;0.50;;;11.40;1.00;;;;;;10319290;28;20428;-78
2023/10/16 12:29:00;;;;;;;1.90;0.70;;;10.70;99.90;;;;;;10330695;28;20226;-78
2023/10/16 12:34:22;;;;;;;3.73;1.00;;;10.20;99.90;;;;;;10336007;28;20216;-77
2023/10/16 12:39:47;;;;;;;3.10;1.30;;;9.90;99.90;;;;;;10330151;28;20239;-76
2023/10/16 12:45:11;;;;;;;3.00;1.30;;;9.80;1.00;;;;;;10317597;28;20357;-80
2023/10/16 12:57:41;;;;;;;5.60;3.03;;;9.70;99.90;;;;;;10338634;28;20196;-77
2023/10/16 13:03:13;;;;;;;1.50;1.10;;;9.70;99.90;;;;;;10335382;28;20208;-77
2023/10/16 13:08:35;;;;;;;3.63;1.30;;;9.50;99.90;;;;;;10336555;28;20449;-78
2023/10/16 13:13:56;;;;;;;3.40;1.20;;;9.50;99.90;;;;;;10331903;28;20205;-78
2023/10/16 13:19:18;;;;;;;3.87;1.43;;;10.40;15.10;;;;;;10336628;28;20413;-79
2023/10/16 13:24:42;;;;;;;1.90;1.20;;;12.60;99.90;;;;;;10332518;28;20531;-77
2023/10/16 13:30:05;;;;;;;1.93;1.23;;;14.30;10.90;;;;;;10335716;28;20194;-79
2023/10/16 13:35:27;;;;;;;2.97;1.30;;;15.40;1.00;;;;;;10339744;28;20539;-82
2023/10/16 13:40:47;;;;;;;6.50;1.20;;;15.00;1.00;;;;;;10331290;28;20472;-79
2023/10/16 13:46:11;;;;;;;4.63;1.40;;;14.30;1.00;;;;;;10349646;28;20262;-78
2023/10/16 13:51:35;;;;;;;6.20;3.50;;;13.40;1.00;;;;;;10318944;28;20209;-76
2023/10/16 13:56:56;;;;;;;4.60;1.43;;;12.20;1.00;;;;;;10327758;28;20208;-78
2023/10/16 14:02:17;;;;;;;4.97;1.30;;;11.20;99.90;;;;;;10332941;28;20226;-76
2023/10/16 14:07:39;;;;;;;2.00;1.23;;;10.60;1.00;;;;;;10344119;28;20251;-77
2023/10/16 14:13:00;;;;;;;2.50;1.30;;;10.20;1.00;;;;;;10335977;28;20239;-78
2023/10/16 14:18:21;;;;;;;2.83;1.27;;;10.00;1.00;;;;;;10320314;28;20278;-77
2023/10/16 14:23:43;;;;;;;3.40;1.70;;;9.90;99.90;;;;;;10341425;28;20224;-76
2023/10/16 14:29:05;;;;;;;3.27;1.70;;;9.80;1.00;;;;;;10338783;28;20246;-78
2023/10/16 14:34:27;;;;;;;5.53;2.60;;;9.90;1.00;;;;;;10331427;28;20191;-78
2023/10/16 14:39:51;;;;;;;11.23;5.13;;;10.00;1.00;;;;;;10312270;28;20252;-77
2023/10/16 14:45:15;;;;;;;14.90;8.17;;;10.00;1.00;;;;;;10344126;28;20288;-76
2023/10/16 14:50:37;;;;;;;4.87;2.67;;;10.10;1.00;;;;;;10330346;28;20477;-79
2023/10/16 14:56:00;;;;;;;5.03;2.00;;;10.10;1.00;;;;;;10340562;28;20515;-80
2023/10/16 15:01:21;;;;;;;6.00;2.10;;;10.00;1.00;;;;;;10330979;28;20209;-80
2023/10/16 15:06:44;;;;;;;5.00;1.90;;;9.80;1.00;;;;;;10350816;28;20238;-77
2023/10/16 15:12:07;;;;;;;3.80;1.90;;;9.50;1.00;;;;;;10354823;28;20235;-77
2023/10/16 15:17:28;;;;;;;4.60;2.30;;;9.30;99.90;;;;;;10351078;28;20207;-77
2023/10/16 15:22:49;;;;;;;5.00;2.50;;;9.20;1.00;;;;;;10353563;28;20406;-77
2023/10/16 15:28:10;;;;;;;5.73;3.20;;;9.00;99.90;;;;;;10353600;28;20520;-77
2023/10/16 15:33:34;;;;;;;4.87;3.20;;;8.80;1.00;;;;;;10349963;28;20207;-76
2023/10/16 15:38:55;;;;;;;5.67;2.53;;;8.70;1.00;;;;;;10351879;28;20308;-76
2023/10/16 15:44:19;;;;;;;4.80;2.40;;;8.60;99.90;;;;;;10351999;28;20250;-74
2023/10/16 15:49:41;;;;;;;5.03;2.53;;;8.50;1.00;;;;;;10311717;28;20444;-74
2023/10/16 15:55:02;;;;;;;11.20;2.93;;;8.50;99.90;;;;;;10328414;28;20233;-74
2023/10/16 16:00:26;;;;;;;4.73;2.97;;;8.30;1.00;;;;;;10352593;28;20411;-76
2023/10/16 16:05:47;;;;;;;7.47;3.67;;;8.20;1.00;;;;;;10353269;28;20517;-76
2023/10/16 16:11:13;;;;;;;8.13;3.53;;;8.20;1.00;;;;;;10329488;28;20210;-76
2023/10/16 16:16:35;;;;;;;6.40;3.07;;;8.00;1.00;;;;;;10357554;28;20516;-75
2023/10/16 16:21:56;;;;;;;7.10;4.13;;;8.00;1.00;;;;;;10362062;28;20198;-75
2023/10/16 16:27:17;;;;;;;5.83;3.33;;;7.90;1.00;;;;;;10360345;28;20280;-75
2023/10/16 16:32:39;;;;;;;8.57;3.40;;;7.80;1.00;;;;;;10359921;28;20206;-75
2023/10/16 16:38:07;;;;;;;5.07;3.10;;;7.80;1.00;;;;;;10360873;28;20229;-75
2023/10/16 16:43:29;;;;;;;7.03;3.40;;;7.80;99.90;;;;;;10358564;28;20493;-75
2023/10/16 16:48:50;;;;;;;8.50;4.77;;;7.70;1.00;;;;;;10319414;28;20278;-74
2023/10/16 16:54:12;;;;;;;9.17;4.60;;;7.70;1.00;;;;;;10352329;28;20198;-76
2023/10/16 16:59:33;;;;;;;8.47;4.03;;;7.60;99.90;;;;;;10371570;28;20238;-78
2023/10/16 17:04:54;;;;;;;5.93;3.80;;;7.60;73.50;;;;;;10360094;28;20226;-77
2023/10/16 17:10:15;;;;;;;8.50;4.83;;;7.60;1.00;;;;;;10359860;28;20202;-76
2023/10/16 17:15:38;;;;;;;8.87;4.87;;;7.60;99.90;;;;;;10358560;28;20211;-77
2023/10/16 17:21:05;;;;;;;7.93;4.60;;;7.50;1.00;;;;;;10358381;28;20274;-77
2023/10/16 17:26:28;;;;;;;7.93;4.30;;;7.50;1.00;;;;;;10358530;28;20226;-76
2023/10/16 17:31:52;;;;;;;8.57;4.23;;;7.40;99.90;;;;;;10324022;28;20228;-76
2023/10/16 17:37:14;;;;;;;10.20;4.20;;;7.40;39.30;;;;;;10342429;28;20245;-77
2023/10/16 17:42:36;;;;;;;7.17;3.80;;;7.30;99.90;;;;;;10357366;28;20423;-76
2023/10/16 17:47:57;;;;;;;10.40;5.10;;;7.30;99.90;;;;;;10368791;28;20221;-74
2023/10/16 17:53:19;;;;;;;7.90;4.23;;;7.20;99.90;;;;;;10357281;28;20198;-76
2023/10/16 17:58:40;;;;;;;8.47;4.63;;;7.20;99.90;;;;;;10356513;28;20278;-76
2023/10/16 18:04:01;;;;;;;17.20;9.33;;;7.20;99.90;;;;;;10357999;28;20214;-76
2023/10/16 18:09:24;;;;;;;22.57;12.73;;;7.10;1.00;;;;;;10356840;28;20200;-76
2023/10/16 18:14:46;;;;;;;15.33;7.47;;;7.00;99.90;;;;;;10356136;28;20234;-76
2023/10/16 18:20:08;;;;;;;15.30;6.40;;;7.00;1.00;;;;;;10357182;28;20205;-76
2023/10/16 18:32:24;;;;;;;8.43;4.00;;;6.80;1.00;;;;;;10352978;28;20200;-77
2023/10/16 18:37:46;;;;;;;6.97;3.73;;;6.80;99.90;;;;;;10353436;28;20249;-76
2023/10/16 18:43:07;;;;;;;12.17;4.77;;;6.80;99.90;;;;;;10354999;28;20217;-76
2023/10/16 18:48:30;;;;;;;8.93;5.83;;;6.70;1.00;;;;;;10355049;28;20232;-76
2023/10/16 18:53:55;;;;;;;8.20;5.23;;;6.60;62.60;;;;;;10354504;28;20481;-74
2023/10/16 18:59:16;;;;;;;9.50;4.07;;;6.50;1.00;;;;;;10355815;28;20260;-74
2023/10/16 19:04:37;;;;;;;8.43;4.30;;;6.40;1.00;;;;;;10341691;28;20535;-75
2023/10/16 19:09:58;;;;;;;9.47;4.30;;;6.30;1.00;;;;;;10353423;28;20269;-76
2023/10/16 19:15:21;;;;;;;10.17;3.87;;;6.20;1.00;;;;;;10355362;28;20204;-76
2023/10/16 19:20:42;;;;;;;6.17;3.23;;;6.20;1.00;;;;;;10352416;28;20186;-77
2023/10/16 19:26:07;;;;;;;6.83;3.50;;;6.20;1.00;;;;;;10354958;28;20224;-77
2023/10/16 19:31:28;;;;;;;11.00;4.60;;;6.20;1.00;;;;;;10354815;28;20269;-77
2023/10/16 19:36:50;;;;;;;10.03;6.53;;;6.20;1.00;;;;;;10338021;28;20284;-76
2023/10/16 19:42:12;;;;;;;5.67;2.57;;;6.20;31.20;;;;;;10358058;28;20224;-76
2023/10/16 19:47:36;;;;;;;7.53;2.90;;;6.20;1.00;;;;;;10365134;28;20221;-76
2023/10/16 19:52:58;;;;;;;7.60;3.70;;;6.10;1.00;;;;;;10366987;28;20194;-77
2023/10/16 19:58:20;;;;;;;6.70;3.47;;;6.10;1.00;;;;;;10366876;28;20197;-77
2023/10/16 20:03:42;;;;;;;5.97;4.20;;;6.10;78.30;;;;;;10367187;28;20289;-77
2023/10/16 20:09:05;;;;;;;11.23;5.27;;;6.10;99.90;;;;;;10367198;28;20207;-77
2023/10/16 20:14:27;;;;;;;8.60;4.97;;;6.00;99.90;;;;;;10367809;28;20197;-77
2023/10/16 20:19:48;;;;;;;14.10;4.90;;;6.10;43.10;;;;;;10367317;28;20492;-76
2023/10/16 20:25:11;;;;;;;54.57;27.70;;;6.00;16.40;;;;;;10367356;28;20221;-76
2023/10/16 20:30:35;;;;;;;58.40;35.13;;;6.00;99.90;;;;;;10367391;28;20196;-76
2023/10/16 20:35:57;;;;;;;39.33;25.50;;;5.90;99.90;;;;;;10366736;28;20461;-76
2023/10/16 20:41:18;;;;;;;12.40;8.00;;;5.90;99.90;;;;;;10352197;28;20197;-76
2023/10/16 20:46:44;;;;;;;10.07;5.07;;;5.90;1.00;;;;;;10365647;28;20465;-76
2023/10/16 20:52:06;;;;;;;7.13;3.70;;;5.90;99.90;;;;;;10366187;28;20190;-77
2023/10/16 20:57:27;;;;;;;6.57;3.50;;;5.90;99.90;;;;;;10359505;28;20193;-77
2023/10/16 21:02:50;;;;;;;7.27;3.53;;;5.90;99.90;;;;;;10359200;28;20205;-76
2023/10/16 21:08:11;;;;;;;6.47;2.83;;;6.00;1.00;;;;;;10358752;28;20239;-76
2023/10/16 21:13:32;;;;;;;6.30;3.27;;;5.90;1.00;;;;;;10331475;28;20191;-76
2023/10/16 21:18:53;;;;;;;5.37;2.70;;;6.00;1.00;;;;;;10319208;28;20199;-77
2023/10/16 21:24:14;;;;;;;5.47;2.50;;;5.90;1.00;;;;;;10319362;28;20214;-76
2023/10/16 21:29:36;;;;;;;4.77;2.57;;;5.90;1.00;;;;;;10364203;28;20243;-76
2023/10/16 21:34:57;;;;;;;8.20;2.83;;;5.90;1.00;;;;;;10350925;28;20241;-77
2023/10/16 21:40:21;;;;;;;7.57;3.50;;;5.90;1.00;;;;;;10329441;28;20484;-76
2023/10/16 21:45:42;;;;;;;41.60;24.53;;;5.80;1.00;;;;;;10356921;28;20343;-76
2023/10/16 21:51:05;;;;;;;48.43;27.90;;;5.80;1.00;;;;;;10357240;28;20248;-77
2023/10/16 21:56:26;;;;;;;13.83;6.30;;;5.80;1.00;;;;;;10357248;28;20196;-76
2023/10/16 22:01:48;;;;;;;8.03;3.00;;;5.80;1.00;;;;;;10358077;28;20201;-77
2023/10/16 22:07:10;;;;;;;4.73;2.40;;;5.80;1.00;;;;;;10356029;28;20221;-76
2023/10/16 22:12:31;;;;;;;4.17;2.00;;;5.70;1.00;;;;;;10357600;28;20197;-77
2023/10/16 22:17:52;;;;;;;7.73;2.40;;;5.70;1.00;;;;;;10357347;28;20377;-76
2023/10/16 22:23:14;;;;;;;4.03;1.60;;;5.70;1.00;;;;;;10357088;28;20190;-76
2023/10/16 22:28:35;;;;;;;4.27;2.30;;;5.60;1.00;;;;;;10355869;28;20236;-76
2023/10/16 22:33:56;;;;;;;7.37;2.00;;;5.60;99.90;;;;;;10355425;28;20277;-76
2023/10/16 22:39:18;;;;;;;4.60;2.03;;;5.60;1.00;;;;;;10356643;28;20296;-77
2023/10/16 22:44:39;;;;;;;4.03;2.00;;;5.60;99.90;;;;;;10354753;28;20225;-74
2023/10/16 22:50:00;;;;;;;4.13;1.87;;;5.60;99.90;;;;;;10354786;28;20492;-76
2023/10/16 22:55:24;;;;;;;4.80;2.20;;;5.60;99.90;;;;;;10355722;28;20193;-76
2023/10/16 23:00:45;;;;;;;6.30;2.23;;;5.60;99.90;;;;;;10355724;28;20200;-76
2023/10/16 23:06:06;;;;;;;5.77;2.63;;;5.60;99.90;;;;;;10355350;28;20261;-76
2023/10/16 23:11:28;;;;;;;6.13;2.17;;;5.50;53.10;;;;;;10354563;28;20203;-76
2023/10/16 23:16:49;;;;;;;5.37;2.30;;;5.50;99.90;;;;;;10354023;28;20223;-76
2023/10/16 23:22:10;;;;;;;4.17;2.20;;;5.50;99.30;;;;;;10355417;28;20189;-77
2023/10/16 23:27:31;;;;;;;5.77;1.90;;;5.40;90.60;;;;;;10353693;28;20313;-76
2023/10/16 23:32:53;;;;;;;2.73;2.03;;;5.30;99.90;;;;;;10354912;28;20193;-77
2023/10/16 23:38:14;;;;;;;4.20;1.90;;;5.20;99.90;;;;;;10342189;28;20250;-76
2023/10/16 23:44:21;;;;;;;3.67;2.33;;;5.20;99.90;;;;;;10354411;28;20499;-76
2023/10/16 23:49:22;;;;;;;4.17;1.90;;;5.20;99.90;;;;;;10352438;28;20216;-76
2023/10/16 23:54:54;;;;;;;7.53;2.60;;;5.10;1.00;;;;;;10354591;28;20274;-76
